Time;durP1;ratioP1;P1;durP2;ratioP2;P2;SDS_P1;SDS_P2;PMS_P1;PMS_P2;Temp;Humidity;BMP_temperature;BMP_pressure;BME280_temperature;BME280_humidity;BME280_pressure;Samples;Min_cycle;Max_cycle;Signal;HPM_P1;HPM_P2
2021/03/09 00:04:48;;;;;;;42.90;22.40;;;;;5.00;101524.00;;;;10506928;28;20235;-75
2021/03/09 00:09:49;;;;;;;43.17;23.77;;;;;5.00;101515.00;;;;10507030;28;20524;-75
2021/03/09 00:14:50;;;;;;;42.97;21.40;;;;;5.00;101526.00;;;;10483233;28;20323;-75
2021/03/09 00:20:06;;;;;;;40.33;22.17;;;;;5.00;101519.00;;;;10501718;28;20232;-75
2021/03/09 00:25:08;;;;;;;40.70;22.40;;;;;4.90;101521.00;;;;10506123;28;20216;-75
2021/03/09 00:30:10;;;;;;;39.10;22.07;;;;;4.90;101527.00;;;;10505887;28;20189;-75
2021/03/09 00:35:11;;;;;;;44.77;23.43;;;;;4.90;101528.00;;;;10494410;28;20215;-75
2021/03/09 00:40:13;;;;;;;37.43;21.43;;;;;4.90;101532.00;;;;10517202;28;20805;-75
2021/03/09 00:45:14;;;;;;;37.50;22.80;;;;;4.80;101526.00;;;;10529828;28;20193;-75
2021/03/09 00:50:29;;;;;;;34.90;21.40;;;;;4.80;101530.00;;;;10507635;28;20185;-75
2021/03/09 00:55:31;;;;;;;41.63;21.47;;;;;4.80;101530.00;;;;10488684;28;20260;-75
2021/03/09 01:00:32;;;;;;;33.90;20.33;;;;;4.80;101530.00;;;;10521872;28;20242;-75
2021/03/09 01:05:33;;;;;;;39.93;22.73;;;;;4.80;101524.00;;;;10499300;28;20189;-75
2021/03/09 01:10:36;;;;;;;34.70;20.77;;;;;4.70;101520.00;;;;10521919;28;20806;-75
2021/03/09 01:15:37;;;;;;;36.43;20.43;;;;;4.70;101511.00;;;;10503992;28;20659;-75
2021/03/09 01:20:51;;;;;;;27.73;16.97;;;;;4.70;101515.00;;;;10521406;28;20196;-75
2021/03/09 01:25:52;;;;;;;38.47;20.20;;;;;4.70;101501.00;;;;10504089;28;20196;-75
2021/03/09 01:30:54;;;;;;;38.70;21.13;;;;;4.60;101507.00;;;;10521273;28;20189;-75
2021/03/09 01:35:55;;;;;;;34.07;19.03;;;;;4.60;101509.00;;;;10487394;28;20213;-75
2021/03/09 01:40:56;;;;;;;42.43;23.33;;;;;4.50;101510.00;;;;10476945;28;20341;-76
2021/03/09 01:45:58;;;;;;;45.03;24.33;;;;;4.50;101504.00;;;;10518583;28;20211;-75
2021/03/09 01:51:18;;;;;;;40.83;23.70;;;;;4.40;101501.00;;;;10514714;28;20199;-75
2021/03/09 01:56:20;;;;;;;44.83;22.87;;;;;4.40;101488.00;;;;10511818;28;20212;-75
2021/03/09 02:01:21;;;;;;;44.87;23.57;;;;;4.30;101488.00;;;;10511614;28;20201;-75
2021/03/09 02:06:23;;;;;;;45.97;25.77;;;;;4.40;101481.00;;;;10495091;28;20236;-75
2021/03/09 02:11:56;;;;;;;46.00;25.63;;;;;4.40;101483.00;;;;10533714;28;20272;-75
2021/03/09 02:17:39;;;;;;;43.10;24.93;;;;;4.40;101477.00;;;;10514296;28;20236;-75
2021/03/09 02:23:02;;;;;;;45.57;23.50;;;;;4.40;101475.00;;;;10450041;28;20271;-76
2021/03/09 02:28:42;;;;;;;46.43;26.57;;;;;4.40;101461.00;;;;10511618;28;20613;-76
2021/03/09 02:33:50;;;;;;;40.03;24.23;;;;;4.40;101454.00;;;;10510544;28;20243;-76
2021/03/09 02:39:04;;;;;;;46.57;25.03;;;;;4.40;101444.00;;;;10527013;28;20957;-76
2021/03/09 02:44:08;;;;;;;41.77;24.33;;;;;4.30;101441.00;;;;10493704;28;20228;-76
2021/03/09 02:49:11;;;;;;;52.10;25.03;;;;;4.30;101442.00;;;;10485149;28;20186;-76
2021/03/09 02:54:15;;;;;;;45.43;23.07;;;;;4.30;101437.00;;;;10483713;28;20189;-76
2021/03/09 02:59:18;;;;;;;43.07;23.50;;;;;4.40;101438.00;;;;10510104;28;20208;-76
2021/03/09 03:04:21;;;;;;;42.37;23.57;;;;;4.40;101435.00;;;;10544978;28;20200;-76
2021/03/09 03:09:22;;;;;;;40.27;22.93;;;;;4.40;101425.00;;;;10529436;28;20555;-76
2021/03/09 03:14:25;;;;;;;41.27;23.43;;;;;4.40;101429.00;;;;10525416;28;20242;-76
2021/03/09 03:19:29;;;;;;;42.50;23.73;;;;;4.30;101419.00;;;;10492851;28;20204;-75
2021/03/09 03:24:31;;;;;;;46.43;23.30;;;;;4.30;101417.00;;;;10509657;28;20231;-75
2021/03/09 03:29:32;;;;;;;41.33;23.10;;;;;4.30;101413.00;;;;10492144;28;20197;-75
2021/03/09 03:34:34;;;;;;;43.47;24.10;;;;;4.30;101408.00;;;;10474814;28;20216;-75
2021/03/09 03:39:36;;;;;;;44.57;24.03;;;;;4.30;101415.00;;;;10507848;28;20216;-75
2021/03/09 03:44:37;;;;;;;44.07;24.77;;;;;4.30;101405.00;;;;10508106;28;20223;-76
2021/03/09 03:49:39;;;;;;;43.43;24.00;;;;;4.30;101411.00;;;;10491323;28;20539;-76
2021/03/09 03:54:48;;;;;;;42.77;23.83;;;;;4.30;101403.00;;;;10465724;28;20276;-76
2021/03/09 03:59:56;;;;;;;44.47;24.53;;;;;4.30;101403.00;;;;10465511;28;20703;-76
2021/03/09 04:04:58;;;;;;;44.97;24.60;;;;;4.30;101405.00;;;;10465804;28;20202;-76
2021/03/09 04:10:02;;;;;;;43.83;24.30;;;;;4.30;101394.00;;;;10489946;28;20201;-76
2021/03/09 04:15:05;;;;;;;40.73;23.10;;;;;4.30;101384.00;;;;10506408;28;20213;-76
2021/03/09 04:20:08;;;;;;;43.67;23.03;;;;;4.30;101377.00;;;;10506949;28;20209;-76
2021/03/09 04:25:10;;;;;;;40.20;23.13;;;;;4.30;101373.00;;;;10506660;28;20235;-76
2021/03/09 04:30:13;;;;;;;43.67;23.87;;;;;4.30;101377.00;;;;10482574;28;20235;-76
2021/03/09 04:35:14;;;;;;;44.10;24.27;;;;;4.30;101371.00;;;;10505899;28;20189;-76
2021/03/09 04:40:16;;;;;;;41.17;21.60;;;;;4.30;101377.00;;;;10505528;28;20247;-76
2021/03/09 04:45:18;;;;;;;41.33;22.47;;;;;4.30;101366.00;;;;10522408;28;20233;-76
2021/03/09 04:50:21;;;;;;;40.80;22.53;;;;;4.30;101370.00;;;;10505283;28;20173;-76
2021/03/09 04:55:24;;;;;;;41.23;22.47;;;;;4.40;101370.00;;;;10521741;28;20716;-76
2021/03/09 05:00:25;;;;;;;39.70;21.90;;;;;4.40;101370.00;;;;10520925;28;20209;-76
2021/03/09 05:05:27;;;;;;;40.03;22.10;;;;;4.40;101369.00;;;;10488478;28;20228;-76
2021/03/09 05:10:32;;;;;;;42.93;21.90;;;;;4.50;101369.00;;;;10486448;28;20186;-76
2021/03/09 05:15:33;;;;;;;41.73;23.93;;;;;4.50;101376.00;;;;10504340;28;20215;-76
2021/03/09 05:20:37;;;;;;;37.77;22.40;;;;;4.50;101366.00;;;;10519712;28;20212;-76
2021/03/09 05:25:39;;;;;;;42.17;23.57;;;;;4.40;101364.00;;;;10487530;28;20185;-76
2021/03/09 05:30:41;;;;;;;45.37;23.83;;;;;4.40;101366.00;;;;10455463;28;20200;-76
2021/03/09 05:35:42;;;;;;;45.40;24.93;;;;;4.40;101348.00;;;;10472326;28;20220;-76
2021/03/09 05:40:44;;;;;;;45.93;23.60;;;;;4.40;101352.00;;;;10521144;28;20262;-76
2021/03/09 05:45:46;;;;;;;43.97;24.33;;;;;4.40;101348.00;;;;10503894;28;20185;-76
2021/03/09 05:50:47;;;;;;;43.23;23.67;;;;;4.40;101333.00;;;;10486716;28;20659;-76
2021/03/09 05:55:48;;;;;;;45.30;22.87;;;;;4.40;101341.00;;;;10520049;28;20727;-76
2021/03/09 06:00:50;;;;;;;41.67;22.70;;;;;4.40;101357.00;;;;10486628;28;20287;-76
2021/03/09 06:05:52;;;;;;;45.20;23.73;;;;;4.50;101359.00;;;;10486238;28;20193;-76
2021/03/09 06:11:13;;;;;;;49.87;25.33;;;;;4.50;101347.00;;;;10503738;28;20610;-76
2021/03/09 06:16:15;;;;;;;46.43;25.37;;;;;4.50;101357.00;;;;10461494;28;20292;-76
2021/03/09 06:21:16;;;;;;;43.97;25.33;;;;;4.60;101363.00;;;;10475518;28;20725;-76
2021/03/09 06:26:32;;;;;;;45.97;25.13;;;;;4.60;101362.00;;;;10503054;28;20185;-76
2021/03/09 06:31:34;;;;;;;48.20;25.40;;;;;4.70;101356.00;;;;10525029;28;20184;-76
2021/03/09 06:36:36;;;;;;;41.67;23.50;;;;;4.70;101349.00;;;;10510401;28;20204;-76
2021/03/09 06:41:37;;;;;;;55.23;27.17;;;;;4.80;101359.00;;;;10510831;28;20200;-76
2021/03/09 06:46:46;;;;;;;46.20;26.43;;;;;4.90;101365.00;;;;10498793;28;20220;-76
2021/03/09 06:51:48;;;;;;;51.87;26.80;;;;;4.90;101357.00;;;;10526753;28;20189;-76
2021/03/09 06:56:49;;;;;;;50.07;26.13;;;;;4.90;101364.00;;;;10509746;28;20296;-76
2021/03/09 07:02:13;;;;;;;49.20;25.63;;;;;5.00;101367.00;;;;10511669;28;20236;-76
2021/03/09 07:07:38;;;;;;;47.10;26.27;;;;;5.00;101378.00;;;;10483002;28;20193;-76
2021/03/09 07:12:42;;;;;;;55.30;30.00;;;;;5.20;101377.00;;;;10518804;28;20213;-76
2021/03/09 07:17:46;;;;;;;47.97;26.90;;;;;5.30;101387.00;;;;10492565;28;20231;-76
2021/03/09 07:22:53;;;;;;;55.10;27.97;;;;;5.40;101387.00;;;;10508288;28;20185;-76
2021/03/09 07:27:58;;;;;;;46.33;25.83;;;;;5.50;101382.00;;;;10468884;28;20285;-76
2021/03/09 07:32:59;;;;;;;57.77;28.53;;;;;5.50;101393.00;;;;10506862;28;20276;-76
2021/03/09 07:38:03;;;;;;;49.60;26.70;;;;;5.50;101395.00;;;;10518079;28;20208;-76
2021/03/09 07:43:05;;;;;;;50.50;28.20;;;;;5.50;101392.00;;;;10507207;28;20193;-76
2021/03/09 07:48:08;;;;;;;47.60;26.70;;;;;5.40;101395.00;;;;10524227;28;20647;-76
2021/03/09 07:53:20;;;;;;;48.03;27.93;;;;;5.50;101397.00;;;;10490141;28;20341;-76
2021/03/09 07:58:26;;;;;;;50.50;28.73;;;;;5.60;101398.00;;;;10474109;28;20560;-76
2021/03/09 08:03:31;;;;;;;53.77;28.30;;;;;5.70;101401.00;;;;10521845;28;20524;-76
2021/03/09 08:08:38;;;;;;;54.67;29.27;;;;;5.80;101402.00;;;;10516885;28;20186;-76
2021/03/09 08:13:42;;;;;;;48.37;28.37;;;;;5.90;101403.00;;;;10528177;28;20845;-76
2021/03/09 08:18:46;;;;;;;50.00;27.40;;;;;5.90;101401.00;;;;10519502;28;20493;-76
2021/03/09 08:23:47;;;;;;;48.83;28.90;;;;;6.00;101402.00;;;;10545257;28;20245;-76
2021/03/09 08:28:48;;;;;;;50.40;30.13;;;;;6.30;101407.00;;;;10523014;28;20192;-76
2021/03/09 08:34:20;;;;;;;53.23;29.23;;;;;6.40;101411.00;;;;10497591;28;20246;-76
2021/03/09 08:39:21;;;;;;;54.53;29.23;;;;;6.50;101402.00;;;;10522765;28;20291;-76
2021/03/09 08:44:28;;;;;;;46.97;28.30;;;;;6.60;101405.00;;;;10516740;28;20227;-76
2021/03/09 08:49:35;;;;;;;48.87;28.47;;;;;6.70;101402.00;;;;10529901;28;20700;-77
2021/03/09 08:54:48;;;;;;;49.43;28.50;;;;;6.60;101399.00;;;;10514163;28;20185;-76
2021/03/09 09:00:02;;;;;;;45.63;27.63;;;;;6.70;101400.00;;;;10535991;28;20604;-76
2021/03/09 09:05:07;;;;;;;49.27;29.23;;;;;6.70;101410.00;;;;10501162;28;20601;-76
2021/03/09 09:10:19;;;;;;;51.77;30.47;;;;;6.90;101400.00;;;;10535174;28;20191;-77
2021/03/09 09:15:25;;;;;;;54.80;30.83;;;;;7.10;101404.00;;;;10555838;28;20220;-76
2021/03/09 09:20:35;;;;;;;48.50;28.07;;;;;7.20;101403.00;;;;10530174;28;20235;-76
2021/03/09 09:25:40;;;;;;;49.17;29.07;;;;;7.10;101391.00;;;;10519122;28;20192;-77
2021/03/09 09:30:43;;;;;;;57.10;32.20;;;;;7.00;101403.00;;;;10521361;28;20238;-76
2021/03/09 09:35:47;;;;;;;49.60;30.03;;;;;7.00;101397.00;;;;10522883;28;20266;-76
2021/03/09 09:40:54;;;;;;;55.63;30.70;;;;;7.40;101397.00;;;;10541295;28;20223;-77
2021/03/09 09:45:59;;;;;;;52.50;30.83;;;;;7.70;101390.00;;;;10512557;28;20201;-77
2021/03/09 09:51:05;;;;;;;57.03;32.03;;;;;7.50;101389.00;;;;10515523;28;20189;-77
2021/03/09 09:56:08;;;;;;;52.27;30.90;;;;;7.40;101391.00;;;;10525209;28;20203;-77
2021/03/09 10:01:11;;;;;;;52.13;30.13;;;;;7.20;101386.00;;;;10564169;28;20677;-77
2021/03/09 10:06:17;;;;;;;59.43;33.47;;;;;7.40;101392.00;;;;10527541;28;20201;-77
2021/03/09 10:11:19;;;;;;;55.97;33.60;;;;;7.90;101384.00;;;;10535119;28;20239;-77
2021/03/09 10:16:39;;;;;;;56.50;33.47;;;;;8.50;101395.00;;;;10514735;28;20209;-77
2021/03/09 10:21:41;;;;;;;51.20;31.60;;;;;8.50;101398.00;;;;10524722;28;20189;-75
2021/03/09 10:26:47;;;;;;;57.57;33.53;;;;;9.00;101394.00;;;;10495780;28;20239;-75
2021/03/09 10:31:54;;;;;;;50.07;33.33;;;;;9.20;101397.00;;;;10527125;28;20200;-77
2021/03/09 10:37:02;;;;;;;46.40;30.83;;;;;8.80;101384.00;;;;10517890;28;20213;-76
2021/03/09 10:42:41;;;;;;;45.67;27.50;;;;;9.00;101388.00;;;;10510087;28;20196;-76
2021/03/09 10:47:43;;;;;;;43.90;28.37;;;;;8.50;101395.00;;;;10517457;28;20181;-76
2021/03/09 10:52:44;;;;;;;45.20;29.13;;;;;8.60;101391.00;;;;10498877;28;20194;-76
2021/03/09 10:57:46;;;;;;;41.37;28.07;;;;;9.00;101391.00;;;;10485421;28;20599;-76
2021/03/09 11:02:48;;;;;;;38.70;26.23;;;;;9.30;101389.00;;;;10531398;28;20208;-76
2021/03/09 11:07:49;;;;;;;38.50;25.20;;;;;10.10;101379.00;;;;10559971;28;20231;-76
2021/03/09 11:12:51;;;;;;;38.57;25.77;;;;;9.60;101380.00;;;;10506409;28;20247;-76
2021/03/09 11:17:52;;;;;;;38.00;27.27;;;;;9.00;101386.00;;;;10546550;28;20246;-76
2021/03/09 11:22:54;;;;;;;39.87;26.97;;;;;8.40;101397.00;;;;10533552;28;20200;-76
2021/03/09 11:27:58;;;;;;;43.27;29.67;;;;;8.00;101402.00;;;;10550410;28;20189;-77
2021/03/09 11:32:59;;;;;;;41.47;29.47;;;;;8.60;101398.00;;;;10550500;28;20666;-77
2021/03/09 11:38:02;;;;;;;41.33;27.50;;;;;8.30;101399.00;;;;10566273;28;20250;-77
2021/03/09 11:43:04;;;;;;;45.40;28.57;;;;;8.30;101403.00;;;;10501083;28;20200;-77
2021/03/09 11:48:05;;;;;;;50.43;30.67;;;;;8.60;101401.00;;;;10566726;28;20189;-77
2021/03/09 11:53:07;;;;;;;47.23;31.67;;;;;9.10;101398.00;;;;10512935;28;20213;-76
2021/03/09 11:58:18;;;;;;;44.23;29.87;;;;;9.40;101400.00;;;;10522922;28;20205;-77
2021/03/09 12:03:20;;;;;;;43.37;29.13;;;;;9.80;101402.00;;;;10503005;28;20212;-76
2021/03/09 12:08:22;;;;;;;42.07;29.30;;;;;9.70;101412.00;;;;10555189;28;20278;-76
2021/03/09 12:13:23;;;;;;;34.73;23.70;;;;;10.00;101396.00;;;;10548497;28;20298;-74
2021/03/09 12:18:25;;;;;;;31.47;22.43;;;;;10.10;101408.00;;;;10565952;28;20680;-76
2021/03/09 12:23:27;;;;;;;27.93;18.80;;;;;9.40;101407.00;;;;10524848;28;20195;-76
2021/03/09 12:28:43;;;;;;;28.27;18.93;;;;;8.70;101407.00;;;;10500303;28;20188;-75
2021/03/09 12:33:45;;;;;;;25.73;18.57;;;;;9.50;101394.00;;;;10523135;28;20197;-75
2021/03/09 12:38:46;;;;;;;18.17;13.67;;;;;10.10;101381.00;;;;10506276;28;20258;-76
2021/03/09 12:43:48;;;;;;;20.13;14.97;;;;;10.50;101384.00;;;;10488914;28;20193;-76
2021/03/09 12:48:49;;;;;;;20.93;15.87;;;;;11.00;101379.00;;;;10505203;28;20267;-76
2021/03/09 12:53:50;;;;;;;21.50;15.83;;;;;11.10;101371.00;;;;10521442;28;20199;-76
2021/03/09 12:59:03;;;;;;;21.10;15.27;;;;;10.70;101370.00;;;;10510221;28;20205;-76
2021/03/09 13:04:06;;;;;;;21.03;15.57;;;;;10.40;101361.00;;;;10521212;28;20224;-76
2021/03/09 13:09:08;;;;;;;15.30;11.27;;;;;10.90;101362.00;;;;10525007;28;20275;-76
2021/03/09 13:14:11;;;;;;;14.87;12.07;;;;;10.90;101361.00;;;;10563552;28;20582;-76
2021/03/09 13:19:12;;;;;;;14.97;11.13;;;;;11.10;101359.00;;;;10563909;28;20239;-76
2021/03/09 13:24:14;;;;;;;15.23;11.90;;;;;11.40;101355.00;;;;10580814;28;20179;-76
2021/03/09 13:29:25;;;;;;;15.87;12.23;;;;;11.00;101360.00;;;;10516375;28;20212;-75
2021/03/09 13:34:26;;;;;;;20.17;14.67;;;;;10.80;101355.00;;;;10521820;28;20201;-76
2021/03/09 13:39:27;;;;;;;19.37;15.53;;;;;10.50;101349.00;;;;10519082;28;20280;-76
2021/03/09 13:44:29;;;;;;;22.10;16.10;;;;;10.20;101349.00;;;;10486904;28;20246;-76
2021/03/09 13:49:30;;;;;;;18.23;14.60;;;;;9.80;101355.00;;;;10536951;28;20196;-76
2021/03/09 13:54:31;;;;;;;22.70;16.17;;;;;9.90;101360.00;;;;10562072;28;20283;-76
2021/03/09 13:59:34;;;;;;;23.30;16.57;;;;;11.00;101349.00;;;;10534824;28;20200;-76
2021/03/09 14:04:36;;;;;;;17.97;15.13;;;;;12.40;101326.00;;;;10486958;28;20642;-76
2021/03/09 14:09:38;;;;;;;20.07;15.70;;;;;11.40;101338.00;;;;10513082;28;20721;-76
2021/03/09 14:14:40;;;;;;;19.40;15.90;;;;;11.00;101340.00;;;;10545027;28;20312;-76
2021/03/09 14:19:43;;;;;;;21.53;16.87;;;;;10.50;101349.00;;;;10558424;28;20240;-76
2021/03/09 14:24:46;;;;;;;25.83;18.77;;;;;10.20;101355.00;;;;10519367;28;20185;-75
2021/03/09 14:29:48;;;;;;;20.90;16.53;;;;;10.10;101346.00;;;;10486231;28;20189;-76
2021/03/09 14:34:50;;;;;;;24.67;17.20;;;;;10.00;101363.00;;;;10532629;28;20262;-76
2021/03/09 14:39:52;;;;;;;24.37;17.47;;;;;9.60;101361.00;;;;10519296;28;20878;-76
2021/03/09 14:44:55;;;;;;;24.07;18.90;;;;;9.20;101357.00;;;;10519799;28;20211;-76
2021/03/09 14:49:57;;;;;;;32.17;20.77;;;;;9.20;101356.00;;;;10519729;28;20188;-76
2021/03/09 14:54:58;;;;;;;26.47;18.40;;;;;8.70;101351.00;;;;10526975;28;20193;-76
2021/03/09 14:59:59;;;;;;;23.27;16.37;;;;;8.50;101360.00;;;;10509609;28;20239;-76
2021/03/09 15:05:03;;;;;;;29.27;19.10;;;;;8.10;101360.00;;;;10508723;28;20207;-76
2021/03/09 15:10:11;;;;;;;39.07;25.30;;;;;7.80;101361.00;;;;10517922;28;20185;-76
2021/03/09 15:15:14;;;;;;;42.47;26.47;;;;;8.10;101364.00;;;;10548023;28;20670;-77
2021/03/09 15:20:19;;;;;;;36.73;24.87;;;;;8.50;101367.00;;;;10517258;28;20897;-76
2021/03/09 15:25:21;;;;;;;31.33;20.80;;;;;8.80;101365.00;;;;10489770;28;20288;-76
2021/03/09 15:30:42;;;;;;;28.10;19.90;;;;;8.80;101356.00;;;;10519152;28;20189;-76
2021/03/09 15:35:43;;;;;;;32.53;20.57;;;;;8.70;101364.00;;;;10524820;28;20287;-76
2021/03/09 15:40:45;;;;;;;28.50;20.83;;;;;8.90;101360.00;;;;10490390;28;20255;-76
2021/03/09 15:45:46;;;;;;;29.93;21.87;;;;;8.90;101360.00;;;;10513763;28;20225;-77
2021/03/09 15:50:48;;;;;;;33.90;23.50;;;;;8.70;101365.00;;;;10509108;28;20539;-77
2021/03/09 15:55:52;;;;;;;36.67;24.43;;;;;8.60;101364.00;;;;10501178;28;20697;-77
2021/03/09 16:00:57;;;;;;;31.77;21.43;;;;;8.70;101345.00;;;;10566659;28;20228;-77
2021/03/09 16:05:59;;;;;;;35.20;23.63;;;;;8.70;101355.00;;;;10534496;28;20302;-77
2021/03/09 16:11:02;;;;;;;33.80;21.63;;;;;8.60;101356.00;;;;10518722;28;20608;-77
2021/03/09 16:16:04;;;;;;;38.80;26.30;;;;;8.40;101370.00;;;;10529666;28;20273;-76
2021/03/09 16:21:05;;;;;;;38.13;23.43;;;;;8.20;101370.00;;;;10483028;28;20579;-76
2021/03/09 16:26:07;;;;;;;38.83;25.90;;;;;8.20;101371.00;;;;10540144;28;20200;-76
2021/03/09 16:31:08;;;;;;;43.13;28.33;;;;;8.20;101374.00;;;;10488338;28;20189;-76
2021/03/09 16:36:14;;;;;;;39.70;27.23;;;;;8.10;101384.00;;;;10472719;28;20192;-76
2021/03/09 16:41:16;;;;;;;43.80;29.97;;;;;7.90;101379.00;;;;10491922;28;20274;-76
2021/03/09 16:46:17;;;;;;;43.27;24.40;;;;;7.80;101380.00;;;;10488105;28;20192;-76
2021/03/09 16:51:18;;;;;;;47.13;30.50;;;;;7.70;101379.00;;;;10516039;28;20189;-76
2021/03/09 16:56:20;;;;;;;48.47;31.73;;;;;7.60;101381.00;;;;10540064;28;20583;-76
2021/03/09 17:01:21;;;;;;;58.27;32.73;;;;;7.60;101389.00;;;;10532626;28;20244;-76
2021/03/09 17:06:22;;;;;;;49.27;30.20;;;;;7.50;101390.00;;;;10504207;28;20193;-76
2021/03/09 17:11:24;;;;;;;45.17;31.17;;;;;7.40;101397.00;;;;10522537;28;20310;-76
2021/03/09 17:16:25;;;;;;;51.33;31.40;;;;;7.30;101401.00;;;;10555479;28;20203;-76
2021/03/09 17:21:26;;;;;;;55.87;30.20;;;;;7.30;101400.00;;;;10494548;28;20217;-75
2021/03/09 17:26:28;;;;;;;70.57;41.17;;;;;7.20;101407.00;;;;10519731;28;20220;-75
2021/03/09 17:31:29;;;;;;;65.93;38.20;;;;;7.20;101407.00;;;;10542210;28;20582;-74
2021/03/09 17:36:30;;;;;;;66.10;38.67;;;;;7.20;101403.00;;;;10507455;28;20401;-74
2021/03/09 17:41:32;;;;;;;64.27;38.43;;;;;7.10;101413.00;;;;10520299;28;20273;-74
2021/03/09 17:46:34;;;;;;;61.83;37.73;;;;;7.10;101412.00;;;;10523895;28;20544;-74
2021/03/09 17:51:36;;;;;;;72.47;39.80;;;;;7.00;101428.00;;;;10480774;28;20264;-74
2021/03/09 17:56:37;;;;;;;63.33;40.23;;;;;7.00;101419.00;;;;10516866;28;20216;-74
2021/03/09 18:01:39;;;;;;;72.33;41.40;;;;;7.00;101425.00;;;;10518138;28;20605;-76
2021/03/09 18:06:41;;;;;;;69.20;42.67;;;;;6.90;101431.00;;;;10551098;28;20200;-76
2021/03/09 18:11:42;;;;;;;77.93;44.57;;;;;6.90;101427.00;;;;10503939;28;20312;-75
2021/03/09 18:16:44;;;;;;;82.93;45.00;;;;;6.90;101429.00;;;;10502501;28;20298;-76
2021/03/09 18:21:47;;;;;;;79.43;43.57;;;;;6.90;101439.00;;;;10505597;28;20892;-76
2021/03/09 18:26:49;;;;;;;82.07;44.40;;;;;6.90;101443.00;;;;10531116;28;20699;-76
2021/03/09 18:31:53;;;;;;;75.90;42.57;;;;;6.80;101448.00;;;;10495525;28;20246;-76
2021/03/09 18:36:55;;;;;;;75.27;43.93;;;;;6.80;101450.00;;;;10531061;28;20219;-76
2021/03/09 18:41:58;;;;;;;76.07;44.33;;;;;6.80;101453.00;;;;10508038;28;20193;-76
2021/03/09 18:46:59;;;;;;;72.87;42.20;;;;;6.70;101456.00;;;;10503484;28;20227;-76
2021/03/09 18:52:03;;;;;;;72.77;41.57;;;;;6.70;101464.00;;;;10539046;28;20216;-76
2021/03/09 18:57:04;;;;;;;67.37;40.07;;;;;6.70;101460.00;;;;10492829;28;20910;-76
2021/03/09 19:02:08;;;;;;;64.97;40.50;;;;;6.70;101456.00;;;;10515535;28;20216;-76
2021/03/09 19:07:10;;;;;;;70.17;38.50;;;;;6.70;101454.00;;;;10522938;28;20188;-76
2021/03/09 19:12:12;;;;;;;62.57;37.47;;;;;6.70;101443.00;;;;10516004;28;20209;-76
2021/03/09 19:17:14;;;;;;;57.80;37.10;;;;;6.70;101442.00;;;;10476523;28;20316;-76
2021/03/09 19:22:17;;;;;;;59.23;39.07;;;;;6.70;101451.00;;;;10477557;28;20193;-76
2021/03/09 19:27:19;;;;;;;63.57;40.43;;;;;6.70;101455.00;;;;10500320;28;20227;-76
2021/03/09 19:32:21;;;;;;;63.47;38.80;;;;;6.70;101457.00;;;;10520890;28;20181;-76
2021/03/09 19:37:23;;;;;;;57.47;37.30;;;;;6.80;101451.00;;;;10474550;28;20292;-76
2021/03/09 19:42:24;;;;;;;65.67;39.23;;;;;6.80;101448.00;;;;10498194;28;20260;-76
2021/03/09 19:47:25;;;;;;;67.77;38.27;;;;;6.70;101450.00;;;;10517926;28;20271;-76
2021/03/09 19:52:27;;;;;;;60.90;38.80;;;;;6.70;101444.00;;;;10487401;28;20197;-76
2021/03/09 19:57:29;;;;;;;60.33;37.67;;;;;6.60;101448.00;;;;10509920;28;20209;-76
2021/03/09 20:02:31;;;;;;;60.13;38.63;;;;;6.60;101451.00;;;;10501423;28;20197;-76
2021/03/09 20:07:33;;;;;;;79.30;40.73;;;;;6.60;101454.00;;;;10495706;28;20718;-76
2021/03/09 20:12:35;;;;;;;63.67;41.33;;;;;6.60;101456.00;;;;10485495;28;20212;-76
2021/03/09 20:17:36;;;;;;;67.90;39.67;;;;;6.60;101452.00;;;;10504390;28;20231;-76
2021/03/09 20:22:38;;;;;;;71.40;41.33;;;;;6.60;101452.00;;;;10495244;28;20208;-76
2021/03/09 20:27:41;;;;;;;72.30;42.33;;;;;6.60;101447.00;;;;10523622;28;20185;-76
2021/03/09 20:32:43;;;;;;;77.33;43.37;;;;;6.50;101448.00;;;;10509163;28;20197;-76
2021/03/09 20:37:44;;;;;;;65.80;40.97;;;;;6.50;101458.00;;;;10465916;28;20208;-76
2021/03/09 20:42:46;;;;;;;72.43;42.00;;;;;6.50;101454.00;;;;10474894;28;20233;-76
2021/03/09 20:47:47;;;;;;;77.20;41.37;;;;;6.40;101446.00;;;;10525703;28;20196;-76
2021/03/09 20:52:49;;;;;;;74.00;43.33;;;;;6.40;101454.00;;;;10532318;28;20200;-76
2021/03/09 20:57:50;;;;;;;73.07;43.37;;;;;6.50;101455.00;;;;10475549;28;20208;-76
2021/03/09 21:02:51;;;;;;;65.03;42.30;;;;;6.50;101447.00;;;;10501478;28;20559;-76
2021/03/09 21:07:53;;;;;;;70.63;42.17;;;;;6.50;101456.00;;;;10483961;28;20242;-76
2021/03/09 21:12:55;;;;;;;66.50;42.97;;;;;6.50;101453.00;;;;10491206;28;20214;-76
2021/03/09 21:17:57;;;;;;;71.63;43.30;;;;;6.50;101422.00;;;;10511261;28;20296;-76
2021/03/09 21:22:58;;;;;;;72.70;43.83;;;;;6.40;101423.00;;;;10485313;28;20181;-76
2021/03/09 21:28:02;;;;;;;72.93;45.23;;;;;6.30;101425.00;;;;10506572;28;20203;-76
2021/03/09 21:33:05;;;;;;;82.10;50.93;;;;;6.10;101417.00;;;;10492822;28;20260;-76
2021/03/09 21:38:06;;;;;;;79.87;46.67;;;;;6.00;101418.00;;;;10498797;28;20201;-76
2021/03/09 21:43:08;;;;;;;71.70;44.70;;;;;5.90;101410.00;;;;10474074;28;20283;-76
2021/03/09 21:48:10;;;;;;;69.90;43.07;;;;;5.80;101414.00;;;;10492516;28;20230;-76
2021/03/09 21:53:11;;;;;;;75.37;45.20;;;;;5.70;101398.00;;;;10505383;28;20193;-76
2021/03/09 21:58:13;;;;;;;85.00;46.93;;;;;5.50;101392.00;;;;10491412;28;20246;-76
2021/03/09 22:03:14;;;;;;;76.50;45.10;;;;;5.40;101387.00;;;;10509943;28;20205;-76
2021/03/09 22:08:15;;;;;;;81.03;47.63;;;;;5.40;101398.00;;;;10545438;28;20188;-76
2021/03/09 22:13:17;;;;;;;76.23;46.10;;;;;5.40;101391.00;;;;10494790;28;20699;-76
2021/03/09 22:18:18;;;;;;;84.33;47.33;;;;;5.50;101400.00;;;;10493842;28;20686;-77
2021/03/09 22:23:20;;;;;;;89.73;47.07;;;;;5.50;101391.00;;;;10500753;28;20615;-74
2021/03/09 22:28:21;;;;;;;101.67;53.30;;;;;5.50;101398.00;;;;10482330;28;20205;-74
2021/03/09 22:33:22;;;;;;;90.73;49.60;;;;;5.60;101389.00;;;;10534689;28;20267;-74
2021/03/09 22:38:24;;;;;;;108.00;58.30;;;;;5.60;101395.00;;;;10496988;28;20243;-74
2021/03/09 22:43:25;;;;;;;111.67;60.43;;;;;5.70;101381.00;;;;10496630;28;20252;-74
2021/03/09 22:48:26;;;;;;;102.87;54.47;;;;;5.70;101381.00;;;;10484852;28;20220;-74
2021/03/09 22:53:29;;;;;;;93.70;54.57;;;;;5.70;101369.00;;;;10467224;28;20201;-74
2021/03/09 22:58:30;;;;;;;98.10;49.83;;;;;5.70;101371.00;;;;10468792;28;20206;-74
2021/03/09 23:03:32;;;;;;;98.30;52.40;;;;;5.70;101366.00;;;;10502408;28;20191;-75
2021/03/09 23:08:33;;;;;;;93.77;51.03;;;;;5.80;101370.00;;;;10526518;28;20193;-75
2021/03/09 23:13:35;;;;;;;95.87;49.40;;;;;5.90;101374.00;;;;10509917;28;20671;-75
2021/03/09 23:18:37;;;;;;;93.13;50.53;;;;;6.00;101374.00;;;;10475855;28;20200;-75
2021/03/09 23:23:38;;;;;;;92.23;49.10;;;;;6.00;101367.00;;;;10509324;28;20204;-75
2021/03/09 23:28:40;;;;;;;93.87;50.63;;;;;6.00;101375.00;;;;10525336;28;20246;-75
2021/03/09 23:33:41;;;;;;;91.83;47.77;;;;;6.10;101370.00;;;;10508706;28;20224;-75
2021/03/09 23:38:42;;;;;;;92.67;50.87;;;;;6.10;101370.00;;;;10541781;28;20209;-75
2021/03/09 23:43:43;;;;;;;86.93;50.47;;;;;6.10;101379.00;;;;10559406;28;20593;-75
2021/03/09 23:48:48;;;;;;;82.03;48.93;;;;;6.10;101378.00;;;;10542579;28;20234;-75
2021/03/09 23:53:54;;;;;;;84.80;48.67;;;;;6.10;101383.00;;;;10540517;28;20193;-75
2021/03/09 23:58:55;;;;;;;89.50;49.17;;;;;6.10;101387.00;;;;10523963;28;20310;-75
